sensor_id;sensor_type;location;lat;lon;timestamp;pressure;altitude;pressure_sealevel;temperature;humidity
62025;BME280;47978;49.118;12.146;2023-05-24T00:00:17;97596.88;;;13.63;78.79
62025;BME280;47978;49.118;12.146;2023-05-24T00:04:18;97593.41;;;13.48;79.27
62025;BME280;47978;49.118;12.146;2023-05-24T00:08:22;97592.09;;;13.46;78.07
62025;BME280;47978;49.118;12.146;2023-05-24T00:12:24;97591.56;;;13.26;77.44
62025;BME280;47978;49.118;12.146;2023-05-24T00:16:25;97596.69;;;13.11;77.46
62025;BME280;47978;49.118;12.146;2023-05-24T00:20:27;97602.13;;;12.85;77.94
62025;BME280;47978;49.118;12.146;2023-05-24T00:24:30;97600.59;;;13.01;76.51
62025;BME280;47978;49.118;12.146;2023-05-24T00:28:32;97605.78;;;13.02;76.64
62025;BME280;47978;49.118;12.146;2023-05-24T00:32:33;97612.06;;;12.86;75.54
62025;BME280;47978;49.118;12.146;2023-05-24T00:36:35;97610.47;;;12.62;77.01
62025;BME280;47978;49.118;12.146;2023-05-24T00:40:38;97611.09;;;12.81;75.57
62025;BME280;47978;49.118;12.146;2023-05-24T00:44:39;97607.81;;;12.57;75.68
62025;BME280;47978;49.118;12.146;2023-05-24T00:48:41;97614.69;;;12.82;73.74
62025;BME280;47978;49.118;12.146;2023-05-24T00:52:43;97620.88;;;12.56;74.45
62025;BME280;47978;49.118;12.146;2023-05-24T00:56:49;97618.63;;;12.58;73.96
62025;BME280;47978;49.118;12.146;2023-05-24T01:00:51;97619.03;;;12.52;73.85
62025;BME280;47978;49.118;12.146;2023-05-24T01:04:54;97617.91;;;12.75;72.94
62025;BME280;47978;49.118;12.146;2023-05-24T01:09:09;97607.06;;;12.43;73.75
62025;BME280;47978;49.118;12.146;2023-05-24T01:13:23;97615.13;;;12.08;74.61
62025;BME280;47978;49.118;12.146;2023-05-24T01:17:28;97605.88;;;12.35;74.09
62025;BME280;47978;49.118;12.146;2023-05-24T01:21:39;97613.00;;;12.27;73.15
62025;BME280;47978;49.118;12.146;2023-05-24T01:25:51;97615.66;;;12.10;73.64
62025;BME280;47978;49.118;12.146;2023-05-24T01:29:55;97616.91;;;12.26;72.62
62025;BME280;47978;49.118;12.146;2023-05-24T01:33:58;97615.28;;;11.89;73.41
62025;BME280;47978;49.118;12.146;2023-05-24T01:37:59;97611.91;;;11.78;73.66
62025;BME280;47978;49.118;12.146;2023-05-24T01:42:07;97610.44;;;11.95;72.72
62025;BME280;47978;49.118;12.146;2023-05-24T01:46:17;97614.06;;;11.67;73.89
62025;BME280;47978;49.118;12.146;2023-05-24T01:50:24;97600.31;;;11.62;74.32
62025;BME280;47978;49.118;12.146;2023-05-24T01:54:30;97607.63;;;11.17;74.91
62025;BME280;47978;49.118;12.146;2023-05-24T01:58:35;97605.41;;;11.33;75.04
62025;BME280;47978;49.118;12.146;2023-05-24T02:02:40;97602.91;;;11.31;76.05
62025;BME280;47978;49.118;12.146;2023-05-24T02:06:42;97607.63;;;11.17;75.69
62025;BME280;47978;49.118;12.146;2023-05-24T02:10:43;97611.94;;;11.37;75.57
62025;BME280;47978;49.118;12.146;2023-05-24T02:14:45;97609.06;;;11.28;75.68
62025;BME280;47978;49.118;12.146;2023-05-24T02:18:48;97609.25;;;11.18;75.87
62025;BME280;47978;49.118;12.146;2023-05-24T02:22:49;97614.63;;;11.42;75.40
62025;BME280;47978;49.118;12.146;2023-05-24T02:26:51;97622.09;;;11.28;75.76
62025;BME280;47978;49.118;12.146;2023-05-24T02:30:53;97619.63;;;11.26;75.89
62025;BME280;47978;49.118;12.146;2023-05-24T02:34:56;97627.75;;;11.50;76.28
62025;BME280;47978;49.118;12.146;2023-05-24T02:38:57;97620.34;;;11.18;75.82
62025;BME280;47978;49.118;12.146;2023-05-24T02:42:59;97619.72;;;11.48;74.26
62025;BME280;47978;49.118;12.146;2023-05-24T02:47:00;97630.81;;;11.07;75.20
62025;BME280;47978;49.118;12.146;2023-05-24T02:51:03;97626.41;;;11.20;74.93
62025;BME280;47978;49.118;12.146;2023-05-24T02:55:06;97618.81;;;11.12;75.12
62025;BME280;47978;49.118;12.146;2023-05-24T02:59:08;97613.59;;;10.64;76.81
62025;BME280;47978;49.118;12.146;2023-05-24T03:03:09;97620.75;;;11.11;75.24
62025;BME280;47978;49.118;12.146;2023-05-24T03:07:12;97629.66;;;11.08;75.40
62025;BME280;47978;49.118;12.146;2023-05-24T03:11:14;97625.25;;;11.21;74.86
62025;BME280;47978;49.118;12.146;2023-05-24T03:15:16;97629.75;;;11.03;74.90
62025;BME280;47978;49.118;12.146;2023-05-24T03:19:17;97641.09;;;10.74;76.33
62025;BME280;47978;49.118;12.146;2023-05-24T03:23:20;97638.25;;;10.79;76.23
62025;BME280;47978;49.118;12.146;2023-05-24T03:27:22;97630.91;;;11.02;76.98
62025;BME280;47978;49.118;12.146;2023-05-24T03:31:23;97633.03;;;10.91;76.59
62025;BME280;47978;49.118;12.146;2023-05-24T03:35:25;97635.09;;;10.99;76.75
62025;BME280;47978;49.118;12.146;2023-05-24T03:39:28;97635.25;;;10.75;77.04
62025;BME280;47978;49.118;12.146;2023-05-24T03:43:29;97637.47;;;11.20;76.92
62025;BME280;47978;49.118;12.146;2023-05-24T03:47:31;97632.63;;;11.12;76.62
62025;BME280;47978;49.118;12.146;2023-05-24T03:51:33;97642.06;;;11.11;75.91
62025;BME280;47978;49.118;12.146;2023-05-24T03:55:35;97637.16;;;11.08;76.33
62025;BME280;47978;49.118;12.146;2023-05-24T03:59:37;97644.03;;;11.24;77.52
62025;BME280;47978;49.118;12.146;2023-05-24T04:03:41;97644.13;;;11.46;76.81
62025;BME280;47978;49.118;12.146;2023-05-24T04:07:43;97649.84;;;11.64;75.95
62025;BME280;47978;49.118;12.146;2023-05-24T04:11:46;97634.47;;;11.71;73.16
62025;BME280;47978;49.118;12.146;2023-05-24T04:15:48;97632.94;;;11.24;75.12
62025;BME280;47978;49.118;12.146;2023-05-24T04:19:49;97637.94;;;10.94;76.58
62025;BME280;47978;49.118;12.146;2023-05-24T04:23:51;97638.19;;;11.39;76.55
62025;BME280;47978;49.118;12.146;2023-05-24T04:27:54;97630.91;;;11.30;75.85
62025;BME280;47978;49.118;12.146;2023-05-24T04:31:55;97629.25;;;11.01;76.54
62025;BME280;47978;49.118;12.146;2023-05-24T04:35:57;97632.03;;;11.70;74.23
62025;BME280;47978;49.118;12.146;2023-05-24T04:39:58;97647.13;;;11.50;74.96
62025;BME280;47978;49.118;12.146;2023-05-24T04:44:01;97633.91;;;11.47;75.43
62025;BME280;47978;49.118;12.146;2023-05-24T04:48:03;97632.31;;;11.82;74.99
62025;BME280;47978;49.118;12.146;2023-05-24T04:52:05;97637.13;;;11.77;75.51
62025;BME280;47978;49.118;12.146;2023-05-24T04:56:07;97634.19;;;11.87;74.45
62025;BME280;47978;49.118;12.146;2023-05-24T05:00:12;97641.25;;;11.52;75.65
62025;BME280;47978;49.118;12.146;2023-05-24T05:04:13;97638.09;;;11.17;76.68
62025;BME280;47978;49.118;12.146;2023-05-24T05:08:15;97646.38;;;11.72;75.74
62025;BME280;47978;49.118;12.146;2023-05-24T05:12:17;97641.25;;;11.79;74.62
62025;BME280;47978;49.118;12.146;2023-05-24T05:16:19;97645.97;;;11.92;74.16
62025;BME280;47978;49.118;12.146;2023-05-24T05:20:21;97644.72;;;11.85;75.02
62025;BME280;47978;49.118;12.146;2023-05-24T05:24:23;97640.53;;;12.24;73.96
62025;BME280;47978;49.118;12.146;2023-05-24T05:28:24;97642.31;;;12.42;73.47
62025;BME280;47978;49.118;12.146;2023-05-24T05:32:27;97645.34;;;11.68;75.71
62025;BME280;47978;49.118;12.146;2023-05-24T05:36:29;97647.59;;;12.30;74.35
62025;BME280;47978;49.118;12.146;2023-05-24T05:40:31;97632.00;;;12.20;75.03
62025;BME280;47978;49.118;12.146;2023-05-24T05:44:32;97639.44;;;13.72;69.36
62025;BME280;47978;49.118;12.146;2023-05-24T05:48:35;97633.38;;;13.79;67.37
62025;BME280;47978;49.118;12.146;2023-05-24T05:52:37;97637.63;;;13.76;67.24
62025;BME280;47978;49.118;12.146;2023-05-24T05:56:39;97639.84;;;13.57;67.80
62025;BME280;47978;49.118;12.146;2023-05-24T06:00:40;97640.09;;;13.29;68.36
62025;BME280;47978;49.118;12.146;2023-05-24T06:04:44;97635.94;;;13.18;68.54
62025;BME280;47978;49.118;12.146;2023-05-24T06:08:46;97641.72;;;12.31;70.19
62025;BME280;47978;49.118;12.146;2023-05-24T06:12:47;97643.78;;;12.62;69.55
62025;BME280;47978;49.118;12.146;2023-05-24T06:16:49;97638.72;;;12.64;69.10
62025;BME280;47978;49.118;12.146;2023-05-24T06:20:52;97636.84;;;12.51;69.11
62025;BME280;47978;49.118;12.146;2023-05-24T06:24:54;97638.53;;;12.15;70.51
62025;BME280;47978;49.118;12.146;2023-05-24T06:28:55;97638.44;;;13.28;69.38
62025;BME280;47978;49.118;12.146;2023-05-24T06:32:57;97643.38;;;13.09;67.27
62025;BME280;47978;49.118;12.146;2023-05-24T06:37:00;97639.91;;;13.74;65.81
62025;BME280;47978;49.118;12.146;2023-05-24T06:41:02;97653.38;;;13.41;67.11
62025;BME280;47978;49.118;12.146;2023-05-24T06:45:04;97655.28;;;13.32;65.56
62025;BME280;47978;49.118;12.146;2023-05-24T06:49:06;97662.50;;;12.56;66.66
62025;BME280;47978;49.118;12.146;2023-05-24T06:53:09;97675.16;;;13.25;65.16
62025;BME280;47978;49.118;12.146;2023-05-24T06:57:10;97661.31;;;13.02;66.34
62025;BME280;47978;49.118;12.146;2023-05-24T07:01:12;97670.56;;;12.67;65.96
62025;BME280;47978;49.118;12.146;2023-05-24T07:05:14;97674.28;;;12.62;66.51
62025;BME280;47978;49.118;12.146;2023-05-24T07:09:17;97681.44;;;12.41;65.61
62025;BME280;47978;49.118;12.146;2023-05-24T07:13:18;97678.09;;;12.97;63.20
62025;BME280;47978;49.118;12.146;2023-05-24T07:17:20;97686.28;;;13.56;61.58
62025;BME280;47978;49.118;12.146;2023-05-24T07:21:22;97689.28;;;13.77;61.04
62025;BME280;47978;49.118;12.146;2023-05-24T07:25:25;97689.56;;;14.33;57.49
62025;BME280;47978;49.118;12.146;2023-05-24T07:29:26;97693.81;;;14.22;58.23
62025;BME280;47978;49.118;12.146;2023-05-24T07:33:28;97696.72;;;13.50;59.37
62025;BME280;47978;49.118;12.146;2023-05-24T07:37:29;97700.66;;;12.37;62.33
62025;BME280;47978;49.118;12.146;2023-05-24T07:41:32;97708.56;;;12.89;62.75
62025;BME280;47978;49.118;12.146;2023-05-24T07:45:34;97720.41;;;13.48;61.99
62025;BME280;47978;49.118;12.146;2023-05-24T07:49:35;97703.72;;;12.94;60.93
62025;BME280;47978;49.118;12.146;2023-05-24T07:53:37;97710.47;;;13.02;61.36
62025;BME280;47978;49.118;12.146;2023-05-24T07:57:40;97708.38;;;13.08;60.90
62025;BME280;47978;49.118;12.146;2023-05-24T08:01:42;97713.13;;;13.07;60.24
62025;BME280;47978;49.118;12.146;2023-05-24T08:05:43;97715.91;;;13.07;59.98
62025;BME280;47978;49.118;12.146;2023-05-24T08:09:45;97726.00;;;13.25;59.53
62025;BME280;47978;49.118;12.146;2023-05-24T08:13:48;97737.31;;;12.48;61.15
62025;BME280;47978;49.118;12.146;2023-05-24T08:17:50;97735.47;;;13.02;60.98
62025;BME280;47978;49.118;12.146;2023-05-24T08:21:51;97727.13;;;13.02;60.36
62025;BME280;47978;49.118;12.146;2023-05-24T08:25:53;97732.59;;;13.69;58.65
62025;BME280;47978;49.118;12.146;2023-05-24T08:29:56;97730.03;;;13.82;58.21
62025;BME280;47978;49.118;12.146;2023-05-24T08:33:58;97729.28;;;13.05;60.05
62025;BME280;47978;49.118;12.146;2023-05-24T08:37:59;97720.13;;;13.27;59.86
62025;BME280;47978;49.118;12.146;2023-05-24T08:42:01;97731.38;;;13.53;58.65
62025;BME280;47978;49.118;12.146;2023-05-24T08:46:07;97735.44;;;13.87;58.70
62025;BME280;47978;49.118;12.146;2023-05-24T08:50:10;97738.34;;;14.48;57.44
62025;BME280;47978;49.118;12.146;2023-05-24T08:54:11;97737.56;;;14.99;56.66
62025;BME280;47978;49.118;12.146;2023-05-24T08:58:14;97742.97;;;15.04;56.11
62025;BME280;47978;49.118;12.146;2023-05-24T09:02:18;97731.06;;;15.51;54.58
62025;BME280;47978;49.118;12.146;2023-05-24T09:06:20;97733.66;;;16.12;53.40
62025;BME280;47978;49.118;12.146;2023-05-24T09:10:23;97728.91;;;15.74;54.39
62025;BME280;47978;49.118;12.146;2023-05-24T09:14:25;97727.09;;;14.96;55.32
62025;BME280;47978;49.118;12.146;2023-05-24T09:18:28;97736.06;;;14.50;57.48
62025;BME280;47978;49.118;12.146;2023-05-24T09:22:30;97733.50;;;13.56;59.58
62025;BME280;47978;49.118;12.146;2023-05-24T09:26:34;97746.94;;;12.87;61.48
62025;BME280;47978;49.118;12.146;2023-05-24T09:30:36;97749.72;;;14.11;58.37
62025;BME280;47978;49.118;12.146;2023-05-24T09:34:40;97755.53;;;14.32;58.20
62025;BME280;47978;49.118;12.146;2023-05-24T09:38:42;97756.59;;;14.14;57.64
62025;BME280;47978;49.118;12.146;2023-05-24T09:42:43;97754.69;;;14.23;57.21
62025;BME280;47978;49.118;12.146;2023-05-24T09:46:45;97751.94;;;13.83;58.62
62025;BME280;47978;49.118;12.146;2023-05-24T09:50:58;97751.44;;;14.38;58.27
62025;BME280;47978;49.118;12.146;2023-05-24T09:55:10;97742.81;;;15.10;56.92
62025;BME280;47978;49.118;12.146;2023-05-24T09:59:12;97736.44;;;15.00;56.99
62025;BME280;47978;49.118;12.146;2023-05-24T10:03:14;97737.13;;;14.80;56.71
62025;BME280;47978;49.118;12.146;2023-05-24T10:07:17;97734.63;;;14.52;57.03
62025;BME280;47978;49.118;12.146;2023-05-24T10:11:19;97738.97;;;14.18;57.67
62025;BME280;47978;49.118;12.146;2023-05-24T10:15:21;97723.81;;;14.59;58.11
62025;BME280;47978;49.118;12.146;2023-05-24T10:19:22;97721.78;;;15.38;56.13
62025;BME280;47978;49.118;12.146;2023-05-24T10:23:29;97723.00;;;15.67;54.81
62025;BME280;47978;49.118;12.146;2023-05-24T10:27:31;97716.88;;;15.35;55.95
62025;BME280;47978;49.118;12.146;2023-05-24T10:31:36;97728.53;;;15.84;56.58
62025;BME280;47978;49.118;12.146;2023-05-24T10:35:40;97728.03;;;15.91;52.61
62025;BME280;47978;49.118;12.146;2023-05-24T10:39:43;97717.16;;;15.42;56.01
62025;BME280;47978;49.118;12.146;2023-05-24T10:43:45;97725.84;;;15.49;55.01
62025;BME280;47978;49.118;12.146;2023-05-24T10:48:07;97724.78;;;15.80;54.40
62025;BME280;47978;49.118;12.146;2023-05-24T10:52:11;97716.19;;;15.47;54.48
62025;BME280;47978;49.118;12.146;2023-05-24T10:56:14;97718.91;;;15.64;55.30
62025;BME280;47978;49.118;12.146;2023-05-24T11:00:25;97723.81;;;15.76;53.84
62025;BME280;47978;49.118;12.146;2023-05-24T11:04:37;97725.28;;;16.62;50.65
62025;BME280;47978;49.118;12.146;2023-05-24T11:08:40;97730.94;;;15.39;54.66
62025;BME280;47978;49.118;12.146;2023-05-24T11:12:43;97726.44;;;15.64;53.39
62025;BME280;47978;49.118;12.146;2023-05-24T11:16:45;97734.78;;;15.81;54.08
62025;BME280;47978;49.118;12.146;2023-05-24T11:20:47;97723.56;;;15.43;54.87
62025;BME280;47978;49.118;12.146;2023-05-24T11:24:50;97717.22;;;16.10;53.62
62025;BME280;47978;49.118;12.146;2023-05-24T11:28:54;97710.53;;;15.64;53.82
62025;BME280;47978;49.118;12.146;2023-05-24T11:32:55;97708.75;;;15.68;53.52
62025;BME280;47978;49.118;12.146;2023-05-24T11:36:57;97715.47;;;14.94;53.14
62025;BME280;47978;49.118;12.146;2023-05-24T11:41:00;97720.84;;;14.47;54.05
62025;BME280;47978;49.118;12.146;2023-05-24T11:45:03;97717.38;;;15.37;54.47
62025;BME280;47978;49.118;12.146;2023-05-24T11:49:06;97710.94;;;15.92;53.96
62025;BME280;47978;49.118;12.146;2023-05-24T11:53:14;97715.72;;;15.27;53.13
62025;BME280;47978;49.118;12.146;2023-05-24T11:57:17;97714.84;;;16.00;50.20
62025;BME280;47978;49.118;12.146;2023-05-24T12:01:25;97719.44;;;15.58;52.91
62025;BME280;47978;49.118;12.146;2023-05-24T12:05:27;97719.47;;;15.49;51.86
62025;BME280;47978;49.118;12.146;2023-05-24T12:09:28;97721.19;;;15.62;50.92
62025;BME280;47978;49.118;12.146;2023-05-24T12:13:30;97709.41;;;15.65;51.63
62025;BME280;47978;49.118;12.146;2023-05-24T12:17:34;97707.06;;;15.67;50.31
62025;BME280;47978;49.118;12.146;2023-05-24T12:21:39;97704.81;;;15.99;50.08
62025;BME280;47978;49.118;12.146;2023-05-24T12:25:41;97697.78;;;15.55;49.96
62025;BME280;47978;49.118;12.146;2023-05-24T12:29:43;97677.91;;;16.03;50.06
62025;BME280;47978;49.118;12.146;2023-05-24T12:33:46;97678.78;;;15.48;49.05
62025;BME280;47978;49.118;12.146;2023-05-24T12:37:47;97681.53;;;15.57;50.96
62025;BME280;47978;49.118;12.146;2023-05-24T12:41:50;97684.59;;;15.81;50.94
62025;BME280;47978;49.118;12.146;2023-05-24T12:45:51;97692.09;;;15.42;49.67
62025;BME280;47978;49.118;12.146;2023-05-24T12:49:56;97698.91;;;16.01;49.91
62025;BME280;47978;49.118;12.146;2023-05-24T12:53:57;97704.19;;;15.93;48.94
62025;BME280;47978;49.118;12.146;2023-05-24T12:57:59;97707.66;;;15.90;48.78
62025;BME280;47978;49.118;12.146;2023-05-24T13:02:00;97697.47;;;15.47;48.67
62025;BME280;47978;49.118;12.146;2023-05-24T13:06:04;97706.06;;;15.25;49.18
62025;BME280;47978;49.118;12.146;2023-05-24T13:10:07;97708.88;;;16.10;48.19
62025;BME280;47978;49.118;12.146;2023-05-24T13:14:08;97710.41;;;16.50;45.31
62025;BME280;47978;49.118;12.146;2023-05-24T13:18:10;97699.50;;;16.15;47.20
62025;BME280;47978;49.118;12.146;2023-05-24T13:22:13;97692.06;;;16.19;47.06
62025;BME280;47978;49.118;12.146;2023-05-24T13:26:15;97679.38;;;16.51;47.21
62025;BME280;47978;49.118;12.146;2023-05-24T13:30:16;97689.75;;;16.21;48.17
62025;BME280;47978;49.118;12.146;2023-05-24T13:34:18;97682.75;;;16.36;46.89
62025;BME280;47978;49.118;12.146;2023-05-24T13:38:21;97671.59;;;16.15;47.17
62025;BME280;47978;49.118;12.146;2023-05-24T13:42:22;97676.38;;;16.35;46.83
62025;BME280;47978;49.118;12.146;2023-05-24T13:46:24;97672.28;;;16.33;47.24
62025;BME280;47978;49.118;12.146;2023-05-24T13:50:26;97672.91;;;16.17;47.71
62025;BME280;47978;49.118;12.146;2023-05-24T13:54:29;97674.94;;;16.08;46.29
62025;BME280;47978;49.118;12.146;2023-05-24T13:58:31;97675.22;;;16.36;46.28
62025;BME280;47978;49.118;12.146;2023-05-24T14:02:32;97670.16;;;16.09;46.75
62025;BME280;47978;49.118;12.146;2023-05-24T14:06:34;97665.69;;;16.37;47.46
62025;BME280;47978;49.118;12.146;2023-05-24T14:10:37;97676.09;;;16.28;46.63
62025;BME280;47978;49.118;12.146;2023-05-24T14:14:38;97675.22;;;16.57;46.06
62025;BME280;47978;49.118;12.146;2023-05-24T14:18:43;97666.78;;;16.45;45.48
62025;BME280;47978;49.118;12.146;2023-05-24T14:22:45;97674.97;;;16.00;47.28
62025;BME280;47978;49.118;12.146;2023-05-24T14:26:47;97672.56;;;16.40;46.06
62025;BME280;47978;49.118;12.146;2023-05-24T14:30:49;97676.09;;;16.28;46.88
62025;BME280;47978;49.118;12.146;2023-05-24T14:34:51;97679.84;;;16.11;47.03
62025;BME280;47978;49.118;12.146;2023-05-24T14:38:55;97681.00;;;16.31;46.65
62025;BME280;47978;49.118;12.146;2023-05-24T14:42:58;97681.38;;;16.51;47.29
62025;BME280;47978;49.118;12.146;2023-05-24T14:46:59;97675.78;;;16.51;46.89
62025;BME280;47978;49.118;12.146;2023-05-24T14:51:01;97674.91;;;15.79;47.84
62025;BME280;47978;49.118;12.146;2023-05-24T14:55:03;97674.41;;;15.85;48.25
62025;BME280;47978;49.118;12.146;2023-05-24T14:59:06;97681.88;;;15.55;47.84
62025;BME280;47978;49.118;12.146;2023-05-24T15:03:08;97687.19;;;15.86;47.46
62025;BME280;47978;49.118;12.146;2023-05-24T15:07:10;97682.97;;;15.80;48.48
62025;BME280;47978;49.118;12.146;2023-05-24T15:11:11;97685.50;;;16.24;47.07
62025;BME280;47978;49.118;12.146;2023-05-24T15:15:14;97680.78;;;16.15;45.83
62025;BME280;47978;49.118;12.146;2023-05-24T15:19:16;97678.25;;;15.72;46.92
62025;BME280;47978;49.118;12.146;2023-05-24T15:23:17;97680.59;;;15.52;47.07
62025;BME280;47978;49.118;12.146;2023-05-24T15:27:21;97679.66;;;15.40;47.65
62025;BME280;47978;49.118;12.146;2023-05-24T15:31:24;97681.31;;;15.79;47.40
62025;BME280;47978;49.118;12.146;2023-05-24T15:35:26;97681.31;;;15.79;48.09
62025;BME280;47978;49.118;12.146;2023-05-24T15:39:27;97680.38;;;15.66;47.34
62025;BME280;47978;49.118;12.146;2023-05-24T15:43:29;97680.66;;;15.35;46.94
62025;BME280;47978;49.118;12.146;2023-05-24T15:47:32;97682.72;;;15.47;45.88
62025;BME280;47978;49.118;12.146;2023-05-24T15:51:34;97679.13;;;15.85;45.89
62025;BME280;47978;49.118;12.146;2023-05-24T15:55:39;97681.44;;;15.91;44.79
62025;BME280;47978;49.118;12.146;2023-05-24T15:59:41;97680.50;;;16.08;46.68
62025;BME280;47978;49.118;12.146;2023-05-24T16:03:44;97680.84;;;16.07;43.52
62025;BME280;47978;49.118;12.146;2023-05-24T16:07:45;97662.00;;;15.74;45.06
62025;BME280;47978;49.118;12.146;2023-05-24T16:11:47;97666.97;;;15.60;44.76
62025;BME280;47978;49.118;12.146;2023-05-24T16:15:49;97667.84;;;15.81;43.44
62025;BME280;47978;49.118;12.146;2023-05-24T16:19:52;97670.84;;;16.06;43.64
62025;BME280;47978;49.118;12.146;2023-05-24T16:23:53;97674.50;;;15.98;45.21
62025;BME280;47978;49.118;12.146;2023-05-24T16:27:55;97662.34;;;15.93;44.85
62025;BME280;47978;49.118;12.146;2023-05-24T16:31:56;97666.88;;;16.07;45.21
62025;BME280;47978;49.118;12.146;2023-05-24T16:36:00;97671.63;;;15.85;44.46
62025;BME280;47978;49.118;12.146;2023-05-24T16:40:05;97670.44;;;16.16;45.18
62025;BME280;47978;49.118;12.146;2023-05-24T16:44:07;97672.28;;;16.12;44.52
62025;BME280;47978;49.118;12.146;2023-05-24T16:48:08;97667.59;;;16.46;44.32
62025;BME280;47978;49.118;12.146;2023-05-24T16:52:11;97665.41;;;16.72;43.95
62025;BME280;47978;49.118;12.146;2023-05-24T16:56:13;97669.59;;;15.94;44.50
62025;BME280;47978;49.118;12.146;2023-05-24T17:00:15;97672.81;;;16.05;45.44
62025;BME280;47978;49.118;12.146;2023-05-24T17:04:17;97666.97;;;16.19;45.23
62025;BME280;47978;49.118;12.146;2023-05-24T17:08:20;97676.41;;;15.67;46.45
62025;BME280;47978;49.118;12.146;2023-05-24T17:12:22;97676.31;;;15.93;46.93
62025;BME280;47978;49.118;12.146;2023-05-24T17:16:23;97675.44;;;16.31;45.11
62025;BME280;47978;49.118;12.146;2023-05-24T17:20:25;97664.66;;;16.63;45.69
62025;BME280;47978;49.118;12.146;2023-05-24T17:24:28;97673.28;;;15.78;46.16
62025;BME280;47978;49.118;12.146;2023-05-24T17:28:30;97684.00;;;15.58;47.37
62025;BME280;47978;49.118;12.146;2023-05-24T17:32:31;97687.66;;;15.41;47.41
62025;BME280;47978;49.118;12.146;2023-05-24T17:36:33;97685.94;;;15.66;47.30
62025;BME280;47978;49.118;12.146;2023-05-24T17:40:36;97693.38;;;16.22;49.38
62025;BME280;47978;49.118;12.146;2023-05-24T17:44:38;97701.28;;;16.40;47.34
62025;BME280;47978;49.118;12.146;2023-05-24T17:48:39;97691.69;;;15.70;49.54
62025;BME280;47978;49.118;12.146;2023-05-24T17:52:41;97700.28;;;15.39;49.83
62025;BME280;47978;49.118;12.146;2023-05-24T17:56:44;97705.47;;;14.84;51.98
62025;BME280;47978;49.118;12.146;2023-05-24T18:00:46;97705.16;;;15.03;53.28
62025;BME280;47978;49.118;12.146;2023-05-24T18:04:47;97719.56;;;14.71;51.32
62025;BME280;47978;49.118;12.146;2023-05-24T18:08:49;97716.75;;;14.36;52.06
62025;BME280;47978;49.118;12.146;2023-05-24T18:12:52;97724.38;;;14.04;53.02
62025;BME280;47978;49.118;12.146;2023-05-24T18:16:53;97710.25;;;14.58;55.38
62025;BME280;47978;49.118;12.146;2023-05-24T18:20:58;97712.59;;;14.07;56.68
62025;BME280;47978;49.118;12.146;2023-05-24T18:25:00;97715.56;;;14.20;57.95
62025;BME280;47978;49.118;12.146;2023-05-24T18:29:03;97714.09;;;13.65;58.84
62025;BME280;47978;49.118;12.146;2023-05-24T18:33:05;97717.03;;;13.68;56.96
62025;BME280;47978;49.118;12.146;2023-05-24T18:37:09;97725.84;;;14.10;57.21
62025;BME280;47978;49.118;12.146;2023-05-24T18:41:10;97722.97;;;13.76;60.37
62025;BME280;47978;49.118;12.146;2023-05-24T18:45:14;97731.75;;;13.29;62.10
62025;BME280;47978;49.118;12.146;2023-05-24T18:49:16;97736.88;;;13.44;61.72
62025;BME280;47978;49.118;12.146;2023-05-24T18:53:17;97742.84;;;13.07;62.86
62025;BME280;47978;49.118;12.146;2023-05-24T18:57:19;97743.28;;;13.00;62.04
62025;BME280;47978;49.118;12.146;2023-05-24T19:01:22;97759.28;;;13.03;63.11
62025;BME280;47978;49.118;12.146;2023-05-24T19:05:23;97764.16;;;12.38;63.73
62025;BME280;47978;49.118;12.146;2023-05-24T19:09:25;97760.13;;;12.45;65.33
62025;BME280;47978;49.118;12.146;2023-05-24T19:13:26;97766.31;;;12.42;63.66
62025;BME280;47978;49.118;12.146;2023-05-24T19:17:29;97769.31;;;12.04;65.96
62025;BME280;47978;49.118;12.146;2023-05-24T19:21:31;97777.03;;;11.93;65.46
62025;BME280;47978;49.118;12.146;2023-05-24T19:25:33;97780.28;;;11.95;66.28
62025;BME280;47978;49.118;12.146;2023-05-24T19:29:35;97793.66;;;11.93;67.58
62025;BME280;47978;49.118;12.146;2023-05-24T19:33:38;97782.88;;;11.31;68.16
62025;BME280;47978;49.118;12.146;2023-05-24T19:37:59;97792.63;;;11.10;69.50
62025;BME280;47978;49.118;12.146;2023-05-24T19:42:01;97796.13;;;11.15;69.45
62025;BME280;47978;49.118;12.146;2023-05-24T19:46:03;97796.78;;;10.74;71.42
62025;BME280;47978;49.118;12.146;2023-05-24T19:50:07;97791.84;;;10.52;72.70
62025;BME280;47978;49.118;12.146;2023-05-24T19:54:08;97811.44;;;10.37;73.42
62025;BME280;47978;49.118;12.146;2023-05-24T19:58:10;97811.84;;;10.25;73.80
62025;BME280;47978;49.118;12.146;2023-05-24T20:02:12;97813.84;;;10.20;73.46
62025;BME280;47978;49.118;12.146;2023-05-24T20:06:15;97813.78;;;10.01;74.95
62025;BME280;47978;49.118;12.146;2023-05-24T20:10:17;97818.00;;;9.69;76.49
62025;BME280;47978;49.118;12.146;2023-05-24T20:14:18;97816.69;;;9.61;76.83
62025;BME280;47978;49.118;12.146;2023-05-24T20:18:20;97815.75;;;9.47;77.40
62025;BME280;47978;49.118;12.146;2023-05-24T20:22:23;97819.72;;;9.36;77.59
62025;BME280;47978;49.118;12.146;2023-05-24T20:26:25;97821.66;;;9.35;77.92
62025;BME280;47978;49.118;12.146;2023-05-24T20:30:26;97815.91;;;9.32;78.38
62025;BME280;47978;49.118;12.146;2023-05-24T20:34:28;97820.13;;;9.19;78.69
62025;BME280;47978;49.118;12.146;2023-05-24T20:38:31;97827.69;;;9.08;79.04
62025;BME280;47978;49.118;12.146;2023-05-24T20:42:33;97824.19;;;8.97;79.66
62025;BME280;47978;49.118;12.146;2023-05-24T20:46:34;97823.81;;;9.09;78.97
62025;BME280;47978;49.118;12.146;2023-05-24T20:50:36;97824.34;;;9.11;79.81
62025;BME280;47978;49.118;12.146;2023-05-24T20:54:39;97824.00;;;8.84;80.55
62025;BME280;47978;49.118;12.146;2023-05-24T20:58:41;97827.81;;;8.88;80.26
62025;BME280;47978;49.118;12.146;2023-05-24T21:02:42;97824.59;;;8.81;80.52
62025;BME280;47978;49.118;12.146;2023-05-24T21:06:44;97823.28;;;8.68;81.10